createdAt,value
2016-11-29T00:00:10.688Z,0
2016-11-29T00:01:11.606Z,0
2016-11-29T00:02:11.346Z,0
2016-11-29T00:03:11.369Z,0
2016-11-29T00:04:11.431Z,0
2016-11-29T00:05:11.132Z,0
2016-11-29T00:06:11.765Z,0
2016-11-29T00:07:11.177Z,0
2016-11-29T00:08:11.206Z,0
2016-11-29T00:09:11.836Z,0
2016-11-29T00:10:11.282Z,0
2016-11-29T00:11:11.589Z,0
2016-11-29T00:12:11.009Z,0
2016-11-29T00:13:11.331Z,0
2016-11-29T00:14:11.063Z,0
2016-11-29T00:15:11.707Z,0
2016-11-29T00:16:11.713Z,0
2016-11-29T00:17:11.445Z,0
2016-11-29T00:18:11.787Z,0
2016-11-29T00:19:11.817Z,0
2016-11-29T00:20:11.223Z,0
2016-11-29T00:21:12.144Z,0
2016-11-29T00:22:11.597Z,0
2016-11-29T00:23:11.634Z,0
2016-11-29T00:24:11.646Z,0
2016-11-29T00:25:11.660Z,0
2016-11-29T00:26:11.971Z,0
2016-11-29T00:27:12.032Z,0
2016-11-29T00:28:12.073Z,0
2016-11-29T00:29:11.766Z,0
2016-11-29T00:30:12.111Z,0
2016-11-29T00:31:11.827Z,0
2016-11-29T00:32:11.893Z,0
2016-11-29T00:33:12.185Z,0
2016-11-29T00:34:11.907Z,0
2016-11-29T00:35:12.252Z,0
2016-11-29T00:36:11.964Z,0
2016-11-29T00:37:11.980Z,0
2016-11-29T00:38:12.329Z,0
2016-11-29T00:39:12.657Z,0
2016-11-29T00:40:12.698Z,0
2016-11-29T00:41:12.095Z,0
2016-11-29T00:42:11.825Z,0
2016-11-29T00:43:12.468Z,0
2016-11-29T00:44:12.801Z,0
2016-11-29T00:45:11.897Z,0
2016-11-29T00:46:12.530Z,0
2016-11-29T00:47:11.964Z,0
2016-11-29T00:48:11.989Z,0
2016-11-29T00:49:12.325Z,0
2016-11-29T00:50:12.646Z,0
2016-11-29T00:51:12.699Z,0
2016-11-29T00:52:12.395Z,0
2016-11-29T00:53:12.424Z,0
2016-11-29T00:54:13.061Z,0
2016-11-29T00:55:12.794Z,0
2016-11-29T00:56:13.130Z,0
2016-11-29T00:57:12.231Z,0
2016-11-29T00:58:12.571Z,0
2016-11-29T00:59:12.888Z,0
2016-11-29T01:00:12.613Z,0
2016-11-29T01:01:12.026Z,0
2016-11-29T01:02:12.684Z,0
2016-11-29T01:03:12.687Z,0
2016-11-29T01:04:13.335Z,0
2016-11-29T01:05:12.154Z,0
2016-11-29T01:06:13.089Z,0
2016-11-29T01:07:13.106Z,0
2016-11-29T01:08:13.143Z,0
2016-11-29T01:09:12.550Z,0
2016-11-29T01:10:12.892Z,0
2016-11-29T01:11:13.529Z,0
2016-11-29T01:12:13.566Z,0
2016-11-29T01:13:12.655Z,0
2016-11-29T01:14:12.704Z,0
2016-11-29T01:15:13.333Z,0
2016-11-29T01:16:12.756Z,0
2016-11-29T01:17:13.081Z,0
2016-11-29T01:18:12.814Z,0
2016-11-29T01:19:13.147Z,0
2016-11-29T01:20:13.776Z,0
2016-11-29T01:21:13.185Z,0
2016-11-29T01:22:13.222Z,0
2016-11-29T01:23:13.842Z,0
2016-11-29T01:24:13.571Z,0
2016-11-29T01:25:13.298Z,0
2016-11-29T01:26:13.632Z,0
2016-11-29T01:27:13.653Z,0
2016-11-29T01:28:13.733Z,0
2016-11-29T01:29:14.006Z,0
2016-11-29T01:30:14.021Z,0
2016-11-29T01:31:13.768Z,0
2016-11-29T01:32:13.492Z,0
2016-11-29T01:33:13.518Z,0
2016-11-29T01:34:13.838Z,0
2016-11-29T01:35:13.562Z,0
2016-11-29T01:36:13.899Z,0
2016-11-29T01:37:14.225Z,0
2016-11-29T01:38:13.953Z,0
2016-11-29T01:39:13.682Z,0
2016-11-29T01:40:14.302Z,0
2016-11-29T01:41:13.419Z,0
2016-11-29T01:42:13.474Z,0
2016-11-29T01:43:13.783Z,0
2016-11-29T01:44:13.526Z,0
2016-11-29T01:45:13.846Z,0
2016-11-29T01:46:14.175Z,0
2016-11-29T01:47:14.192Z,0
2016-11-29T01:48:14.556Z,0
2016-11-29T01:49:14.244Z,0
2016-11-29T01:50:13.978Z,0
2016-11-29T01:51:14.599Z,0
2016-11-29T01:52:14.635Z,0
2016-11-29T01:53:14.063Z,0
2016-11-29T01:54:14.076Z,0
2016-11-29T01:55:14.397Z,0
2016-11-29T01:56:14.737Z,0
2016-11-29T01:57:13.858Z,0
2016-11-29T01:58:14.192Z,0
2016-11-29T01:59:14.203Z,0
2016-11-29T02:00:14.543Z,0
2016-11-29T02:01:14.265Z,0
2016-11-29T02:02:13.994Z,0
2016-11-29T02:03:14.935Z,0
2016-11-29T02:04:14.357Z,0
2016-11-29T02:05:14.977Z,0
2016-11-29T02:06:15.020Z,0
2016-11-29T02:07:14.126Z,0
2016-11-29T02:08:14.759Z,0
2016-11-29T02:09:14.507Z,0
2016-11-29T02:10:14.228Z,0
2016-11-29T02:11:14.832Z,0
2016-11-29T02:12:14.572Z,0
2016-11-29T02:13:14.895Z,0
2016-11-29T02:14:14.624Z,0
2016-11-29T02:15:14.331Z,0
2016-11-29T02:16:14.686Z,0
2016-11-29T02:17:14.393Z,0
2016-11-29T02:18:15.038Z,0
2016-11-29T02:19:14.443Z,0
2016-11-29T02:20:15.096Z,0
2016-11-29T02:21:14.804Z,0
2016-11-29T02:22:15.133Z,0
2016-11-29T02:23:14.861Z,0
2016-11-29T02:24:15.200Z,0
2016-11-29T02:25:14.607Z,0
2016-11-29T02:26:14.923Z,0
2016-11-29T02:27:15.556Z,0
2016-11-29T02:28:15.004Z,0
2016-11-29T02:29:15.026Z,0
2016-11-29T02:30:15.037Z,0
2016-11-29T02:31:15.674Z,0
2016-11-29T02:32:14.802Z,0
2016-11-29T02:33:15.111Z,0
2016-11-29T02:34:15.452Z,0
2016-11-29T02:35:15.472Z,0
2016-11-29T02:36:15.501Z,0
2016-11-29T02:37:15.527Z,0
2016-11-29T02:38:15.562Z,0
2016-11-29T02:39:15.587Z,0
2016-11-29T02:40:15.332Z,0
2016-11-29T02:41:15.324Z,0
2016-11-29T02:42:15.681Z,0
2016-11-29T02:43:15.693Z,0
2016-11-29T02:44:15.422Z,0
2016-11-29T02:45:15.739Z,0
2016-11-29T02:46:15.476Z,0
2016-11-29T02:47:15.205Z,0
2016-11-29T02:48:15.837Z,0
2016-11-29T02:49:15.546Z,0
2016-11-29T02:50:15.574Z,0
2016-11-29T02:51:15.598Z,0
2016-11-29T02:52:15.635Z,0
2016-11-29T02:53:15.983Z,0
2016-11-29T02:54:15.708Z,0
2016-11-29T02:55:15.404Z,0
2016-11-29T02:56:16.374Z,0
2016-11-29T02:57:16.354Z,0
2016-11-29T02:58:15.795Z,0
2016-11-29T02:59:16.124Z,0
2016-11-29T03:00:16.169Z,0
2016-11-29T03:01:16.473Z,0
2016-11-29T03:02:16.194Z,0
2016-11-29T03:03:15.924Z,0
2016-11-29T03:04:15.955Z,0
2016-11-29T03:05:16.272Z,0
2016-11-29T03:06:16.621Z,0
2016-11-29T03:07:16.030Z,0
2016-11-29T03:08:15.769Z,0
2016-11-29T03:09:16.683Z,0
2016-11-29T03:10:16.089Z,0
2016-11-29T03:11:15.847Z,0
2016-11-29T03:12:16.473Z,0
2016-11-29T03:13:16.493Z,0
2016-11-29T03:14:16.221Z,0
2016-11-29T03:15:16.547Z,0
2016-11-29T03:16:16.267Z,0
2016-11-29T03:17:16.300Z,0
2016-11-29T03:18:16.317Z,0
2016-11-29T03:19:16.945Z,0
2016-11-29T03:20:16.400Z,0
2016-11-29T03:21:17.003Z,0
2016-11-29T03:22:16.734Z,0
2016-11-29T03:23:16.760Z,0
2016-11-29T03:24:16.496Z,0
2016-11-29T03:25:16.809Z,0
2016-11-29T03:26:16.855Z,0
2016-11-29T03:27:16.246Z,0
2016-11-29T03:28:16.595Z,0
2016-11-29T03:29:16.903Z,0
2016-11-29T03:30:16.973Z,0
2016-11-29T03:31:16.669Z,0
2016-11-29T03:32:17.001Z,0
2016-11-29T03:33:17.019Z,0
2016-11-29T03:34:17.057Z,0
2016-11-29T03:35:16.771Z,0
2016-11-29T03:36:17.418Z,0
2016-11-29T03:37:16.829Z,0
2016-11-29T03:38:16.870Z,0
2016-11-29T03:39:16.876Z,0
2016-11-29T03:40:17.216Z,0
2016-11-29T03:41:16.936Z,0
2016-11-29T03:42:17.288Z,0
2016-11-29T03:43:16.994Z,0
2016-11-29T03:44:16.706Z,0
2016-11-29T03:45:16.730Z,0
2016-11-29T03:46:17.385Z,0
2016-11-29T03:47:17.396Z,0
2016-11-29T03:48:17.428Z,0
2016-11-29T03:49:16.529Z,0
2016-11-29T03:50:17.175Z,0
2016-11-29T03:51:17.806Z,0
2016-11-29T03:52:17.831Z,0
2016-11-29T03:53:17.855Z,0
2016-11-29T03:54:17.279Z,0
2016-11-29T03:55:17.009Z,0
2016-11-29T03:56:17.947Z,0
2016-11-29T03:57:17.655Z,0
2016-11-29T03:58:17.396Z,0
2016-11-29T03:59:17.421Z,0
2016-11-29T04:00:17.741Z,0
2016-11-29T04:01:17.762Z,0
2016-11-29T04:02:16.895Z,0
2016-11-29T04:03:17.220Z,0
2016-11-29T04:04:17.840Z,0
2016-11-29T04:05:17.565Z,0
2016-11-29T04:06:17.902Z,0
2016-11-29T04:07:17.667Z,0
2016-11-29T04:08:17.660Z,0
2016-11-29T04:09:17.372Z,0
2016-11-29T04:10:18.009Z,0
2016-11-29T04:11:18.346Z,0
2016-11-29T04:12:18.055Z,0
2016-11-29T04:13:17.779Z,0
2016-11-29T04:14:18.116Z,0
2016-11-29T04:15:18.156Z,0
2016-11-29T04:16:18.165Z,0
2016-11-29T04:17:18.194Z,0
2016-11-29T04:18:18.514Z,0
2016-11-29T04:19:18.544Z,0
2016-11-29T04:20:18.261Z,0
2016-11-29T04:21:17.989Z,0
2016-11-29T04:22:18.314Z,0
2016-11-29T04:23:18.675Z,0
2016-11-29T04:24:18.068Z,0
2016-11-29T04:25:17.784Z,0
2016-11-29T04:26:18.117Z,0
2016-11-29T04:27:18.161Z,0
2016-11-29T04:28:17.861Z,0
2016-11-29T04:29:18.839Z,0
2016-11-29T04:30:18.540Z,0
2016-11-29T04:31:18.573Z,0
2016-11-29T04:32:18.585Z,0
2016-11-29T04:33:18.622Z,0
2016-11-29T04:34:18.347Z,0
2016-11-29T04:35:18.072Z,0
2016-11-29T04:36:17.772Z,0
2016-11-29T04:37:18.741Z,0
2016-11-29T04:38:18.158Z,0
2016-11-29T04:39:18.788Z,0
2016-11-29T04:40:19.100Z,0
2016-11-29T04:41:18.820Z,0
2016-11-29T04:42:18.257Z,0
2016-11-29T04:43:18.874Z,0
2016-11-29T04:44:18.603Z,0
2016-11-29T04:45:19.236Z,0
2016-11-29T04:46:18.978Z,0
2016-11-29T04:47:19.285Z,0
2016-11-29T04:48:18.721Z,0
2016-11-29T04:49:18.123Z,0
2016-11-29T04:50:19.060Z,0
2016-11-29T04:51:19.388Z,0
2016-11-29T04:52:19.117Z,0
2016-11-29T04:53:19.154Z,0
2016-11-29T04:54:18.866Z,0
2016-11-29T04:55:19.205Z,0
2016-11-29T04:56:18.924Z,0
2016-11-29T04:57:18.645Z,0
2016-11-29T04:58:19.276Z,0
2016-11-29T04:59:19.602Z,0
2016-11-29T05:00:19.323Z,0
2016-11-29T05:01:18.453Z,0
2016-11-29T05:02:19.688Z,0
2016-11-29T05:03:19.105Z,0
2016-11-29T05:04:18.535Z,0
2016-11-29T05:05:19.799Z,0
2016-11-29T05:06:19.176Z,0
2016-11-29T05:07:19.215Z,0
2016-11-29T05:08:18.921Z,0
2016-11-29T05:09:19.254Z,0
2016-11-29T05:10:19.604Z,0
2016-11-29T05:11:19.615Z,0
2016-11-29T05:12:19.932Z,0
2016-11-29T05:13:18.790Z,0
2016-11-29T05:14:19.397Z,0
2016-11-29T05:15:20.022Z,0
2016-11-29T05:16:19.787Z,0
2016-11-29T05:17:19.468Z,0
2016-11-29T05:18:19.505Z,0
2016-11-29T05:19:19.830Z,0
2016-11-29T05:20:19.547Z,0
2016-11-29T05:21:20.180Z,0
2016-11-29T05:22:20.208Z,0
2016-11-29T05:23:19.936Z,0
2016-11-29T05:24:19.970Z,0
2016-11-29T05:25:20.312Z,0
2016-11-29T05:26:19.698Z,0
2016-11-29T05:27:20.040Z,0
2016-11-29T05:28:20.068Z,0
2016-11-29T05:29:19.802Z,0
2016-11-29T05:30:19.814Z,0
2016-11-29T05:31:19.835Z,0
2016-11-29T05:32:20.476Z,0
2016-11-29T05:33:19.593Z,0
2016-11-29T05:34:19.933Z,0
2016-11-29T05:35:20.246Z,0
2016-11-29T05:36:19.979Z,0
2016-11-29T05:37:20.608Z,0
2016-11-29T05:38:20.340Z,0
2016-11-29T05:39:20.048Z,0
2016-11-29T05:40:20.389Z,0
2016-11-29T05:41:20.710Z,0
2016-11-29T05:42:20.143Z,0
2016-11-29T05:43:20.144Z,0
2016-11-29T05:44:20.797Z,0
2016-11-29T05:45:20.538Z,0
2016-11-29T05:46:20.263Z,0
2016-11-29T05:47:19.957Z,0
2016-11-29T05:48:20.615Z,0
2016-11-29T05:49:20.345Z,0
2016-11-29T05:50:20.953Z,0
2016-11-29T05:51:20.674Z,0
2016-11-29T05:52:21.015Z,0
2016-11-29T05:53:21.031Z,0
2016-11-29T05:54:20.764Z,0
2016-11-29T05:55:20.769Z,0
2016-11-29T05:56:20.798Z,0
2016-11-29T05:57:20.826Z,0
2016-11-29T05:58:20.859Z,0
2016-11-29T05:59:21.179Z,0
2016-11-29T06:00:21.210Z,0
2016-11-29T06:01:20.637Z,0
2016-11-29T06:02:20.954Z,0
2016-11-29T06:03:21.303Z,0
2016-11-29T06:04:20.720Z,0
2016-11-29T06:05:21.346Z,0
2016-11-29T06:06:21.381Z,0
2016-11-29T06:07:20.185Z,0
2016-11-29T06:08:21.114Z,0
2016-11-29T06:09:20.845Z,0
2016-11-29T06:10:21.208Z,0
2016-11-29T06:11:21.201Z,0
2016-11-29T06:12:20.939Z,0
2016-11-29T06:13:20.654Z,0
2016-11-29T06:14:20.980Z,0
2016-11-29T06:15:20.708Z,0
2016-11-29T06:16:21.328Z,0
2016-11-29T06:17:21.065Z,0
2016-11-29T06:18:21.398Z,0
2016-11-29T06:19:21.111Z,0
2016-11-29T06:20:20.835Z,0
2016-11-29T06:21:21.775Z,0
2016-11-29T06:22:21.508Z,0
2016-11-29T06:23:21.521Z,0
2016-11-29T06:24:21.241Z,0
2016-11-29T06:25:21.886Z,0
2016-11-29T06:26:21.306Z,0
2016-11-29T06:27:21.328Z,0
2016-11-29T06:28:21.056Z,0
2016-11-29T06:29:21.694Z,0
2016-11-29T06:30:21.414Z,0
2016-11-29T06:31:21.438Z,0
2016-11-29T06:32:21.760Z,0
2016-11-29T06:33:21.784Z,0
2016-11-29T06:34:21.817Z,0
2016-11-29T06:35:21.838Z,0
2016-11-29T06:36:21.871Z,0
2016-11-29T06:37:21.291Z,0
2016-11-29T06:38:21.628Z,0
2016-11-29T06:39:22.253Z,0
2016-11-29T06:40:21.693Z,0
2016-11-29T06:41:22.306Z,0
2016-11-29T06:42:22.031Z,0
2016-11-29T06:43:21.760Z,0
2016-11-29T06:44:22.096Z,0
2016-11-29T06:45:22.409Z,0
2016-11-29T06:46:22.158Z,0
2016-11-29T06:47:22.159Z,0
2016-11-29T06:48:21.287Z,0
2016-11-29T06:49:22.519Z,0
2016-11-29T06:50:21.941Z,0
2016-11-29T06:51:21.984Z,0
2016-11-29T06:52:22.286Z,0
2016-11-29T06:53:22.023Z,0
2016-11-29T06:54:22.355Z,0
2016-11-29T06:55:22.684Z,0
2016-11-29T06:56:22.092Z,0
2016-11-29T06:57:22.437Z,0
2016-11-29T06:58:22.770Z,0
2016-11-29T06:59:22.775Z,0
2016-11-29T07:00:22.264Z,0
2016-11-29T07:01:22.532Z,0
2016-11-29T07:02:21.707Z,0
2016-11-29T07:03:22.009Z,0
2016-11-29T07:04:22.926Z,0
2016-11-29T07:05:22.331Z,0
2016-11-29T07:06:22.668Z,0
2016-11-29T07:07:22.384Z,0
2016-11-29T07:08:22.713Z,0
2016-11-29T07:09:22.727Z,0
2016-11-29T07:10:22.470Z,0
2016-11-29T07:11:22.847Z,0
2016-11-29T07:12:22.829Z,0
2016-11-29T07:13:23.141Z,0
2016-11-29T07:14:22.297Z,0
2016-11-29T07:15:22.297Z,0
2016-11-29T07:16:23.235Z,0
2016-11-29T07:17:22.651Z,0
2016-11-29T07:18:22.376Z,0
2016-11-29T07:19:23.012Z,0
2016-11-29T07:20:22.729Z,0
2016-11-29T07:21:23.358Z,0
2016-11-29T07:22:23.086Z,0
2016-11-29T07:23:23.132Z,0
2016-11-29T07:24:22.837Z,0
2016-11-29T07:25:23.169Z,0
2016-11-29T07:26:23.203Z,0
2016-11-29T07:27:22.302Z,0
2016-11-29T07:28:23.299Z,0
2016-11-29T07:29:22.988Z,0
2016-11-29T07:30:23.012Z,0
2016-11-29T07:31:23.025Z,0
2016-11-29T07:32:23.391Z,0
2016-11-29T07:33:23.083Z,0
2016-11-29T07:34:23.119Z,0
2016-11-29T07:35:22.816Z,0
2016-11-29T07:36:23.453Z,0
2016-11-29T07:37:23.801Z,0
2016-11-29T07:38:23.522Z,0
2016-11-29T07:39:23.530Z,0
2016-11-29T07:40:23.289Z,0
2016-11-29T07:41:23.888Z,0
2016-11-29T07:42:23.316Z,0
2016-11-29T07:43:23.049Z,0
2016-11-29T07:44:23.366Z,0
2016-11-29T07:45:23.391Z,0
2016-11-29T07:46:23.124Z,0
2016-11-29T07:47:24.056Z,0
2016-11-29T07:48:23.193Z,0
2016-11-29T07:49:23.814Z,0
2016-11-29T07:50:24.151Z,0
2016-11-29T07:51:23.863Z,0
2016-11-29T07:52:23.891Z,0
2016-11-29T07:53:24.224Z,0
2016-11-29T07:54:23.949Z,0
2016-11-29T07:55:24.265Z,0
2016-11-29T07:56:24.019Z,5
2016-11-29T07:57:24.035Z,5
2016-11-29T07:58:24.079Z,5
2016-11-29T07:59:24.397Z,5
2016-11-29T08:00:24.101Z,5
2016-11-29T08:01:23.838Z,5
2016-11-29T08:02:24.158Z,5
2016-11-29T08:03:24.191Z,5
2016-11-29T08:04:24.200Z,5
2016-11-29T08:05:24.536Z,5
2016-11-29T08:06:23.659Z,5
2016-11-29T08:07:24.018Z,5
2016-11-29T08:08:24.327Z,5
2016-11-29T08:09:24.351Z,5
2016-11-29T08:10:24.680Z,5
2016-11-29T08:11:24.404Z,10
2016-11-29T08:12:24.738Z,10
2016-11-29T08:13:24.457Z,15
2016-11-29T08:14:24.515Z,20
2016-11-29T08:15:24.803Z,25
2016-11-29T08:16:24.223Z,30
2016-11-29T08:17:24.573Z,30
2016-11-29T08:18:24.590Z,35
2016-11-29T08:19:24.002Z,35
2016-11-29T08:20:24.963Z,40
2016-11-29T08:21:24.363Z,40
2016-11-29T08:22:24.393Z,40
2016-11-29T08:23:24.412Z,40
2016-11-29T08:24:24.741Z,40
2016-11-29T08:25:24.782Z,40
2016-11-29T08:26:25.111Z,40
2016-11-29T08:27:24.835Z,40
2016-11-29T08:28:24.852Z,40
2016-11-29T08:29:24.888Z,40
2016-11-29T08:30:24.610Z,40
2016-11-29T08:31:24.950Z,40
2016-11-29T08:32:24.963Z,40
2016-11-29T08:33:24.987Z,40
2016-11-29T08:34:24.724Z,40
2016-11-29T08:35:24.437Z,40
2016-11-29T08:36:25.369Z,40
2016-11-29T08:37:25.106Z,40
2016-11-29T08:38:25.423Z,40
2016-11-29T08:39:25.490Z,40
2016-11-29T08:40:25.181Z,40
2016-11-29T08:41:24.609Z,35
2016-11-29T08:42:25.550Z,35
2016-11-29T08:43:25.276Z,35
2016-11-29T08:44:25.292Z,35
2016-11-29T08:45:25.625Z,35
2016-11-29T08:46:25.357Z,35
2016-11-29T08:47:25.678Z,35
2016-11-29T08:48:25.714Z,35
2016-11-29T08:49:25.107Z,35
2016-11-29T08:50:25.452Z,35
2016-11-29T08:51:25.169Z,35
2016-11-29T08:52:25.808Z,35
2016-11-29T08:53:25.829Z,35
2016-11-29T08:54:25.273Z,35
2016-11-29T08:55:25.899Z,30
2016-11-29T08:56:25.639Z,30
2016-11-29T08:57:25.646Z,30
2016-11-29T08:58:25.965Z,30
2016-11-29T08:59:25.694Z,30
2016-11-29T09:00:25.717Z,30
2016-11-29T09:01:25.747Z,30
2016-11-29T09:02:25.223Z,30
2016-11-29T09:03:26.128Z,30
2016-11-29T09:04:25.269Z,30
2016-11-29T09:05:25.557Z,30
2016-11-29T09:06:25.890Z,30
2016-11-29T09:07:25.611Z,30
2016-11-29T09:08:25.952Z,30
2016-11-29T09:09:25.961Z,30
2016-11-29T09:10:26.001Z,30
2016-11-29T09:11:25.718Z,30
2016-11-29T09:12:26.367Z,30
2016-11-29T09:13:26.368Z,30
2016-11-29T09:14:25.205Z,30
2016-11-29T09:15:26.424Z,30
2016-11-29T09:16:26.181Z,30
2016-11-29T09:17:25.591Z,25
2016-11-29T09:18:26.222Z,25
2016-11-29T09:19:26.247Z,25
2016-11-29T09:20:26.576Z,25
2016-11-29T09:21:26.602Z,25
2016-11-29T09:22:26.333Z,20
2016-11-29T09:23:26.354Z,20
2016-11-29T09:24:26.695Z,20
2016-11-29T09:25:26.701Z,20
2016-11-29T09:26:25.848Z,20
2016-11-29T09:27:26.741Z,15
2016-11-29T09:28:25.885Z,15
2016-11-29T09:29:26.517Z,15
2016-11-29T09:30:25.927Z,15
2016-11-29T09:31:26.570Z,15
2016-11-29T09:32:25.988Z,15
2016-11-29T09:33:26.617Z,15
2016-11-29T09:34:26.938Z,15
2016-11-29T09:35:26.368Z,10
2016-11-29T09:36:26.715Z,10
2016-11-29T09:37:26.756Z,10
2016-11-29T09:38:27.061Z,10
2016-11-29T09:39:26.480Z,10
2016-11-29T09:40:27.122Z,10
2016-11-29T09:41:26.850Z,10
2016-11-29T09:42:26.559Z,10
2016-11-29T09:43:27.180Z,10
2016-11-29T09:44:27.240Z,10
2016-11-29T09:45:27.253Z,10
2016-11-29T09:46:26.974Z,10
2016-11-29T09:47:26.698Z,10
2016-11-29T09:48:26.750Z,10
2016-11-29T09:49:27.359Z,10
2016-11-29T09:50:26.480Z,10
2016-11-29T09:51:26.805Z,10
2016-11-29T09:52:27.143Z,10
2016-11-29T09:53:27.471Z,10
2016-11-29T09:54:26.876Z,10
2016-11-29T09:55:26.912Z,15
2016-11-29T09:56:27.249Z,15
2016-11-29T09:57:27.578Z,15
2016-11-29T09:58:26.998Z,15
2016-11-29T09:59:27.335Z,15
2016-11-29T10:00:27.655Z,15
2016-11-29T10:01:27.082Z,15
2016-11-29T10:02:26.789Z,20
2016-11-29T10:03:26.830Z,20
2016-11-29T10:04:27.479Z,20
2016-11-29T10:05:27.495Z,20
2016-11-29T10:06:27.824Z,25
2016-11-29T10:07:26.940Z,25
2016-11-29T10:08:27.270Z,25
2016-11-29T10:09:27.610Z,25
2016-11-29T10:10:27.014Z,25
2016-11-29T10:11:27.336Z,25
2016-11-29T10:12:27.988Z,30
2016-11-29T10:13:27.103Z,30
2016-11-29T10:14:27.734Z,30
2016-11-29T10:15:27.742Z,30
2016-11-29T10:16:27.786Z,30
2016-11-29T10:17:27.505Z,30
2016-11-29T10:18:27.240Z,30
2016-11-29T10:19:27.265Z,30
2016-11-29T10:20:27.606Z,30
2016-11-29T10:21:27.930Z,35
2016-11-29T10:22:27.331Z,30
2016-11-29T10:23:27.970Z,25
2016-11-29T10:24:28.009Z,20
2016-11-29T10:25:27.766Z,20
2016-11-29T10:26:27.751Z,20
2016-11-29T10:27:28.395Z,20
2016-11-29T10:28:27.808Z,20
2016-11-29T10:29:27.828Z,20
2016-11-29T10:30:27.874Z,20
2016-11-29T10:31:27.894Z,20
2016-11-29T10:32:27.611Z,20
2016-11-29T10:33:28.248Z,20
2016-11-29T10:34:27.988Z,15
2016-11-29T10:35:28.321Z,15
2016-11-29T10:36:28.331Z,15
2016-11-29T10:37:28.365Z,20
2016-11-29T10:38:28.387Z,20
2016-11-29T10:39:28.400Z,15
2016-11-29T10:40:28.433Z,15
2016-11-29T10:41:28.171Z,15
2016-11-29T10:42:28.491Z,15
2016-11-29T10:43:27.912Z,15
2016-11-29T10:44:28.552Z,15
2016-11-29T10:45:28.585Z,15
2016-11-29T10:46:28.598Z,15
2016-11-29T10:47:28.638Z,15
2016-11-29T10:48:28.951Z,15
2016-11-29T10:49:28.676Z,15
2016-11-29T10:50:29.012Z,15
2016-11-29T10:51:28.456Z,15
2016-11-29T10:52:29.082Z,15
2016-11-29T10:53:28.178Z,15
2016-11-29T10:54:29.127Z,15
2016-11-29T10:55:28.524Z,15
2016-11-29T10:56:28.889Z,15
2016-11-29T10:57:28.894Z,15
2016-11-29T10:58:28.939Z,15
2016-11-29T10:59:28.351Z,15
2016-11-29T11:00:28.981Z,15
2016-11-29T11:01:29.012Z,15
2016-11-29T11:02:29.056Z,15
2016-11-29T11:03:28.754Z,15
2016-11-29T11:04:29.415Z,15
2016-11-29T11:05:28.820Z,15
2016-11-29T11:06:28.836Z,15
2016-11-29T11:07:29.469Z,15
2016-11-29T11:08:29.195Z,15
2016-11-29T11:09:29.530Z,15
2016-11-29T11:10:29.251Z,15
2016-11-29T11:11:28.672Z,15
2016-11-29T11:12:28.700Z,15
2016-11-29T11:13:29.032Z,15
2016-11-29T11:14:29.070Z,15
2016-11-29T11:15:29.090Z,15
2016-11-29T11:16:29.123Z,15
2016-11-29T11:17:28.840Z,15
2016-11-29T11:18:29.466Z,15
2016-11-29T11:19:29.490Z,15
2016-11-29T11:20:29.834Z,15
2016-11-29T11:21:29.559Z,15
2016-11-29T11:22:29.567Z,15
2016-11-29T11:23:29.012Z,15
2016-11-29T11:24:29.949Z,15
2016-11-29T11:25:29.065Z,15
2016-11-29T11:26:29.090Z,15
2016-11-29T11:27:29.418Z,15
2016-11-29T11:28:29.759Z,15
2016-11-29T11:29:29.476Z,15
2016-11-29T11:30:29.492Z,15
2016-11-29T11:31:29.514Z,15
2016-11-29T11:32:29.546Z,15
2016-11-29T11:33:29.887Z,15
2016-11-29T11:34:30.220Z,15
2016-11-29T11:35:29.020Z,15
2016-11-29T11:36:30.273Z,15
2016-11-29T11:37:29.990Z,15
2016-11-29T11:38:30.017Z,15
2016-11-29T11:39:30.047Z,15
2016-11-29T11:40:30.056Z,15
2016-11-29T11:41:30.089Z,15
2016-11-29T11:42:30.117Z,10
2016-11-29T11:43:29.846Z,10
2016-11-29T11:44:30.186Z,10
2016-11-29T11:45:30.195Z,10
2016-11-29T11:46:30.223Z,10
2016-11-29T11:47:29.353Z,10
2016-11-29T11:48:30.589Z,10
2016-11-29T11:49:30.013Z,10
2016-11-29T11:50:30.046Z,10
2016-11-29T11:51:29.755Z,10
2016-11-29T11:52:30.736Z,10
2016-11-29T11:53:30.740Z,10
2016-11-29T11:54:30.462Z,10
2016-11-29T11:55:30.163Z,10
2016-11-29T11:56:30.495Z,10
2016-11-29T11:57:30.527Z,10
2016-11-29T11:58:30.556Z,10
2016-11-29T11:59:30.274Z,10
2016-11-29T12:00:30.001Z,10
2016-11-29T12:01:30.334Z,10
2016-11-29T12:02:30.347Z,10
2016-11-29T12:03:31.008Z,10
2016-11-29T12:04:31.021Z,10
2016-11-29T12:05:30.746Z,10
2016-11-29T12:06:31.057Z,10
2016-11-29T12:07:30.194Z,10
2016-11-29T12:08:30.835Z,10
2016-11-29T12:09:30.852Z,10
2016-11-29T12:10:30.261Z,10
2016-11-29T12:11:30.597Z,10
2016-11-29T12:12:30.940Z,10
2016-11-29T12:13:30.354Z,10
2016-11-29T12:14:30.379Z,10
2016-11-29T12:15:30.100Z,10
2016-11-29T12:16:30.744Z,10
2016-11-29T12:17:30.767Z,10
2016-11-29T12:18:31.398Z,10
2016-11-29T12:19:31.427Z,10
2016-11-29T12:20:30.892Z,10
2016-11-29T12:21:31.180Z,10
2016-11-29T12:22:30.916Z,10
2016-11-29T12:23:30.622Z,10
2016-11-29T12:24:31.568Z,10
2016-11-29T12:25:30.977Z,10
2016-11-29T12:26:30.999Z,10
2016-11-29T12:27:31.032Z,10
2016-11-29T12:28:31.057Z,10
2016-11-29T12:29:31.385Z,5
2016-11-29T12:30:31.718Z,5
2016-11-29T12:31:31.143Z,5
2016-11-29T12:32:31.787Z,5
2016-11-29T12:33:31.500Z,5
2016-11-29T12:34:31.220Z,5
2016-11-29T12:35:31.846Z,5
2016-11-29T12:36:31.282Z,5
2016-11-29T12:37:31.303Z,5
2016-11-29T12:38:31.028Z,5
2016-11-29T12:39:31.349Z,5
2016-11-29T12:40:31.993Z,5
2016-11-29T12:41:31.402Z,5
2016-11-29T12:42:31.742Z,5
2016-11-29T12:43:32.075Z,5
2016-11-29T12:44:31.801Z,5
2016-11-29T12:45:31.822Z,5
2016-11-29T12:46:31.237Z,5
2016-11-29T12:47:32.174Z,5
2016-11-29T12:48:31.911Z,5
2016-11-29T12:49:31.316Z,5
2016-11-29T12:50:31.660Z,5
2016-11-29T12:51:31.997Z,5
2016-11-29T12:52:31.393Z,5
2016-11-29T12:53:32.038Z,5
2016-11-29T12:54:32.375Z,5
2016-11-29T12:55:31.772Z,5
2016-11-29T12:56:32.113Z,5
2016-11-29T12:57:31.865Z,5
2016-11-29T12:58:32.169Z,5
2016-11-29T12:59:32.207Z,5
2016-11-29T13:00:31.611Z,5
2016-11-29T13:01:32.559Z,5
2016-11-29T13:02:31.984Z,5
2016-11-29T13:03:32.609Z,5
2016-11-29T13:04:32.306Z,5
2016-11-29T13:05:32.370Z,5
2016-11-29T13:06:32.093Z,5
2016-11-29T13:07:32.436Z,5
2016-11-29T13:08:32.733Z,5
2016-11-29T13:09:32.166Z,5
2016-11-29T13:10:32.198Z,5
2016-11-29T13:11:32.519Z,5
2016-11-29T13:12:32.239Z,5
2016-11-29T13:13:32.281Z,5
2016-11-29T13:14:32.614Z,5
2016-11-29T13:15:32.629Z,5
2016-11-29T13:16:32.054Z,5
2016-11-29T13:17:32.379Z,5
2016-11-29T13:18:33.039Z,5
2016-11-29T13:19:32.732Z,5
2016-11-29T13:20:33.085Z,5
2016-11-29T13:21:32.181Z,5
2016-11-29T13:22:33.133Z,5
2016-11-29T13:23:33.142Z,5
2016-11-29T13:24:33.183Z,5
2016-11-29T13:25:32.917Z,5
2016-11-29T13:26:32.920Z,5
2016-11-29T13:27:32.649Z,5
2016-11-29T13:28:32.686Z,5
2016-11-29T13:29:33.006Z,5
2016-11-29T13:30:33.035Z,5
2016-11-29T13:31:33.055Z,5
2016-11-29T13:32:33.083Z,5
2016-11-29T13:33:33.408Z,5
2016-11-29T13:34:33.449Z,5
2016-11-29T13:35:33.162Z,5
2016-11-29T13:36:32.882Z,5
2016-11-29T13:37:33.500Z,5
2016-11-29T13:38:32.632Z,5
2016-11-29T13:39:32.657Z,5
2016-11-29T13:40:33.306Z,5
2016-11-29T13:41:33.626Z,5
2016-11-29T13:42:33.343Z,5
2016-11-29T13:43:33.688Z,5
2016-11-29T13:44:33.400Z,5
2016-11-29T13:45:33.133Z,5
2016-11-29T13:46:33.478Z,5
2016-11-29T13:47:33.831Z,5
2016-11-29T13:48:33.835Z,5
2016-11-29T13:49:33.860Z,5
2016-11-29T13:50:33.252Z,5
2016-11-29T13:51:32.987Z,5
2016-11-29T13:52:33.318Z,5
2016-11-29T13:53:33.642Z,5
2016-11-29T13:54:33.666Z,5
2016-11-29T13:55:33.684Z,5
2016-11-29T13:56:33.724Z,5
2016-11-29T13:57:33.453Z,5
2016-11-29T13:58:33.774Z,5
2016-11-29T13:59:34.115Z,5
2016-11-29T14:00:33.848Z,5
2016-11-29T14:01:33.868Z,5
2016-11-29T14:02:33.875Z,5
2016-11-29T14:03:33.909Z,5
2016-11-29T14:04:33.938Z,5
2016-11-29T14:05:33.664Z,5
2016-11-29T14:06:34.004Z,5
2016-11-29T14:07:33.716Z,5
2016-11-29T14:08:33.765Z,5
2016-11-29T14:09:33.761Z,5
2016-11-29T14:10:33.786Z,5
2016-11-29T14:11:34.146Z,5
2016-11-29T14:12:34.165Z,5
2016-11-29T14:13:34.479Z,5
2016-11-29T14:14:33.921Z,5
2016-11-29T14:15:34.225Z,5
2016-11-29T14:16:34.259Z,5
2016-11-29T14:17:33.675Z,5
2016-11-29T14:18:34.320Z,5
2016-11-29T14:19:33.737Z,5
2016-11-29T14:20:34.360Z,5
2016-11-29T14:21:34.094Z,5
2016-11-29T14:22:34.431Z,5
2016-11-29T14:23:33.835Z,5
2016-11-29T14:24:34.480Z,5
2016-11-29T14:25:34.487Z,0
2016-11-29T14:26:33.929Z,0
2016-11-29T14:27:33.938Z,0
2016-11-29T14:28:33.974Z,0
2016-11-29T14:29:34.292Z,0
2016-11-29T14:30:34.640Z,0
2016-11-29T14:31:34.332Z,0
2016-11-29T14:32:34.378Z,0
2016-11-29T14:33:34.110Z,0
2016-11-29T14:34:34.450Z,0
2016-11-29T14:35:34.462Z,0
2016-11-29T14:36:34.492Z,0
2016-11-29T14:37:35.156Z,0